Time;durP1;ratioP1;P1;durP2;ratioP2;P2;SDS_P1;SDS_P2;PMS_P1;PMS_P2;Temp;Humidity;BMP_temperature;BMP_pressure;BME280_temperature;BME280_humidity;BME280_pressure;Samples;Min_cycle;Max_cycle;Signal;HPM_P1;HPM_P2
2024/01/30 00:01:26;;;;;;;837.83;772.55;;;4.20;99.90;;;;;;4984198;28;20050;-79
2024/01/30 00:03:52;;;;;;;840.28;773.90;;;4.20;99.90;;;;;;4984988;28;20042;-78
2024/01/30 00:06:21;;;;;;;838.60;773.03;;;4.30;99.90;;;;;;4984747;28;20057;-79
2024/01/30 00:08:48;;;;;;;820.95;756.03;;;4.30;99.90;;;;;;4985757;28;20498;-79
2024/01/30 00:11:15;;;;;;;806.60;744.20;;;4.30;99.90;;;;;;4985931;28;20516;-79
2024/01/30 00:13:41;;;;;;;837.83;772.28;;;4.80;99.90;;;;;;4984659;28;20137;-79
2024/01/30 00:16:07;;;;;;;840.92;774.65;;;4.30;99.90;;;;;;4984405;28;20049;-79
2024/01/30 00:18:33;;;;;;;792.20;731.30;;;4.30;99.90;;;;;;4986727;28;20118;-79
2024/01/30 00:20:59;;;;;;;802.40;740.05;;;4.30;99.90;;;;;;4985434;28;20410;-78
2024/01/30 00:23:24;;;;;;;808.30;746.47;;;4.30;99.90;;;;;;4985592;28;20088;-79
2024/01/30 00:25:50;;;;;;;824.95;759.63;;;4.30;99.90;;;;;;4985259;28;20042;-79
2024/01/30 00:28:16;;;;;;;793.95;731.97;;;4.80;99.90;;;;;;4984131;28;20444;-79
2024/01/30 00:30:42;;;;;;;838.47;771.47;;;4.30;99.90;;;;;;4984152;28;20104;-79
2024/01/30 00:33:09;;;;;;;812.72;749.05;;;4.30;99.90;;;;;;4984982;28;20115;-79
2024/01/30 00:35:34;;;;;;;834.42;768.65;;;4.30;99.90;;;;;;4985211;28;20490;-79
2024/01/30 00:38:00;;;;;;;804.15;741.58;;;4.30;99.90;;;;;;4986416;28;20135;-79
2024/01/30 00:40:26;;;;;;;847.65;780.97;;;4.30;99.90;;;;;;4984620;28;20455;-79
2024/01/30 00:42:52;;;;;;;786.28;725.05;;;4.20;99.90;;;;;;4985756;28;20113;-79
2024/01/30 00:45:17;;;;;;;812.33;749.67;;;4.20;99.90;;;;;;4985854;28;20498;-78
2024/01/30 00:47:44;;;;;;;825.83;761.50;;;4.30;99.90;;;;;;4986468;28;20034;-79
2024/01/30 00:50:11;;;;;;;806.47;743.83;;;4.20;99.90;;;;;;4985796;28;20076;-79
2024/01/30 00:52:38;;;;;;;838.60;771.65;;;4.20;99.90;;;;;;4986355;28;20034;-79
2024/01/30 00:55:05;;;;;;;852.10;783.85;;;4.30;99.90;;;;;;4986439;28;20134;-79
2024/01/30 00:57:30;;;;;;;832.05;766.47;;;4.30;99.90;;;;;;4983518;28;20908;-79
2024/01/30 00:59:57;;;;;;;824.78;759.67;;;4.30;99.90;;;;;;4984827;28;20038;-79
2024/01/30 01:02:22;;;;;;;820.95;756.47;;;4.30;99.90;;;;;;4982120;28;20089;-79
2024/01/30 01:04:48;;;;;;;820.80;756.15;;;4.30;99.90;;;;;;4989545;28;20066;-79
2024/01/30 01:07:14;;;;;;;873.88;802.30;;;4.90;99.90;;;;;;4993275;28;20549;-78
2024/01/30 01:09:39;;;;;;;845.92;778.75;;;4.40;99.90;;;;;;4984130;28;20052;-79
2024/01/30 01:12:06;;;;;;;840.47;773.08;;;4.50;99.90;;;;;;4983158;28;20126;-79
2024/01/30 01:14:31;;;;;;;910.72;834.97;;;4.50;99.90;;;;;;4997208;28;20072;-79
2024/01/30 01:16:57;;;;;;;840.08;773.35;;;4.50;99.90;;;;;;4984994;28;20092;-79
2024/01/30 01:19:23;;;;;;;830.72;765.40;;;4.60;99.90;;;;;;4988412;28;20483;-79
2024/01/30 01:21:48;;;;;;;828.42;762.15;;;5.00;99.90;;;;;;5004684;28;20046;-79
2024/01/30 01:24:14;;;;;;;858.53;789.00;;;4.50;99.90;;;;;;4985843;28;20061;-78
2024/01/30 01:26:40;;;;;;;883.38;811.83;;;4.60;99.90;;;;;;4995240;28;20056;-78
2024/01/30 01:29:12;;;;;;;862.05;793.05;;;4.50;99.90;;;;;;5002982;28;20050;-79
2024/01/30 01:31:43;;;;;;;851.33;783.60;;;4.50;99.90;;;;;;4990633;28;20050;-79
2024/01/30 01:34:10;;;;;;;838.10;771.53;;;4.50;99.90;;;;;;5002201;28;20120;-79
2024/01/30 01:36:36;;;;;;;852.88;784.97;;;4.50;99.90;;;;;;5004423;28;20046;-79
2024/01/30 01:39:03;;;;;;;851.08;784.15;;;4.50;99.90;;;;;;5003014;28;20045;-79
2024/01/30 01:41:31;;;;;;;862.30;792.80;;;4.40;99.90;;;;;;4989923;28;20541;-79
2024/01/30 01:43:57;;;;;;;824.83;759.75;;;4.40;99.90;;;;;;4984885;28;20122;-79
2024/01/30 01:46:23;;;;;;;837.83;772.08;;;5.00;99.90;;;;;;4983700;28;20141;-78
2024/01/30 01:48:49;;;;;;;858.28;789.20;;;4.40;99.90;;;;;;4983465;28;20047;-78
2024/01/30 01:51:16;;;;;;;846.00;778.95;;;4.40;99.90;;;;;;4984016;28;20046;-78
2024/01/30 01:53:42;;;;;;;870.03;800.38;;;4.40;99.90;;;;;;4983122;28;20078;-79
2024/01/30 01:56:08;;;;;;;821.78;756.17;;;4.50;99.90;;;;;;4983581;28;20431;-79
2024/01/30 01:58:35;;;;;;;821.15;755.83;;;4.70;99.90;;;;;;4997127;28;20437;-79
2024/01/30 02:01:02;;;;;;;856.33;787.97;;;4.70;99.90;;;;;;4979797;28;20089;-78
2024/01/30 02:03:28;;;;;;;861.83;792.72;;;4.40;99.90;;;;;;4985347;28;20433;-79
2024/01/30 02:05:55;;;;;;;864.53;795.50;;;4.40;99.90;;;;;;4984039;28;20066;-79
2024/01/30 02:08:21;;;;;;;855.05;786.72;;;4.40;99.90;;;;;;5016092;28;20050;-79
2024/01/30 02:10:47;;;;;;;848.97;780.38;;;4.50;99.90;;;;;;4984243;28;20054;-79
2024/01/30 02:13:13;;;;;;;826.17;760.90;;;4.40;99.90;;;;;;4982963;28;20542;-79
2024/01/30 02:15:38;;;;;;;815.28;752.10;;;4.30;99.90;;;;;;4983725;28;20116;-79
2024/01/30 02:18:04;;;;;;;824.58;759.35;;;4.40;99.90;;;;;;4984132;28;20057;-79
2024/01/30 02:20:34;;;;;;;833.97;768.38;;;4.40;99.90;;;;;;4983925;28;20310;-79
2024/01/30 02:23:02;;;;;;;828.88;763.40;;;4.80;99.90;;;;;;4983188;28;20515;-79
2024/01/30 02:25:34;;;;;;;820.00;754.80;;;4.30;99.90;;;;;;4985275;28;20069;-79
2024/01/30 02:27:59;;;;;;;840.78;773.72;;;4.90;99.90;;;;;;4985277;28;20046;-79
2024/01/30 02:30:25;;;;;;;829.60;763.97;;;4.70;99.90;;;;;;4986254;28;20050;-79
2024/01/30 02:32:51;;;;;;;872.88;802.88;;;4.40;99.90;;;;;;4988021;28;20046;-79
2024/01/30 02:35:16;;;;;;;860.78;791.63;;;4.70;99.90;;;;;;5005419;28;20081;-79
2024/01/30 02:37:42;;;;;;;852.50;783.90;;;4.70;99.90;;;;;;4987072;28;20061;-79
2024/01/30 02:40:08;;;;;;;867.40;798.67;;;4.50;99.90;;;;;;4986558;28;20125;-79
2024/01/30 02:42:33;;;;;;;838.92;772.17;;;4.50;99.90;;;;;;4985254;28;20049;-79
2024/01/30 02:44:59;;;;;;;846.30;778.88;;;4.60;99.90;;;;;;4986060;28;20395;-79
2024/01/30 02:47:25;;;;;;;846.17;779.75;;;4.70;99.90;;;;;;4998424;28;20046;-78
2024/01/30 02:49:50;;;;;;;836.92;770.40;;;4.70;99.90;;;;;;5018485;28;20136;-79
2024/01/30 02:52:16;;;;;;;822.47;757.63;;;4.70;99.90;;;;;;4986364;28;20053;-79
2024/01/30 02:54:42;;;;;;;831.58;766.17;;;4.70;99.90;;;;;;4987747;28;20122;-79
2024/01/30 02:57:08;;;;;;;838.60;771.50;;;4.60;99.90;;;;;;4984691;28;20076;-79
2024/01/30 02:59:35;;;;;;;856.72;788.33;;;4.70;99.90;;;;;;4987225;28;20046;-78
2024/01/30 03:02:01;;;;;;;862.05;792.30;;;4.70;99.90;;;;;;4982696;28;20073;-79
2024/01/30 03:04:27;;;;;;;854.63;786.30;;;4.60;99.90;;;;;;4988941;28;20042;-79
2024/01/30 03:06:53;;;;;;;861.60;792.58;;;4.70;99.90;;;;;;5006802;28;20438;-79
2024/01/30 03:09:18;;;;;;;838.35;772.30;;;4.60;99.90;;;;;;5036288;28;20459;-79
2024/01/30 03:11:44;;;;;;;861.95;792.78;;;4.60;99.90;;;;;;4985805;28;20054;-79
2024/01/30 03:14:11;;;;;;;872.03;801.72;;;4.80;99.90;;;;;;4985922;28;20520;-79
2024/01/30 03:16:37;;;;;;;858.15;789.35;;;5.10;99.90;;;;;;4985709;28;20085;-79
2024/01/30 03:19:05;;;;;;;834.53;768.40;;;4.70;99.90;;;;;;4987439;28;20073;-79
2024/01/30 03:21:30;;;;;;;846.45;778.83;;;4.70;99.90;;;;;;4986391;28;20126;-78
2024/01/30 03:23:56;;;;;;;884.88;812.78;;;4.80;99.90;;;;;;4985704;28;20166;-79
2024/01/30 03:26:22;;;;;;;848.83;781.00;;;4.80;99.90;;;;;;4985505;28;20050;-79
2024/01/30 03:28:47;;;;;;;874.78;804.33;;;5.30;99.90;;;;;;4987197;28;20120;-79
2024/01/30 03:31:15;;;;;;;844.85;777.80;;;4.90;99.90;;;;;;4986993;28;20116;-79
2024/01/30 03:33:41;;;;;;;878.28;806.35;;;4.90;99.90;;;;;;4987008;28;20038;-79
2024/01/30 03:36:08;;;;;;;871.03;800.75;;;4.90;99.90;;;;;;4985814;28;20064;-79
2024/01/30 03:38:34;;;;;;;858.08;789.92;;;4.90;99.90;;;;;;4985206;28;20046;-79
2024/01/30 03:41:00;;;;;;;862.33;792.90;;;4.90;99.90;;;;;;4986882;28;20061;-79
2024/01/30 03:43:26;;;;;;;850.30;783.05;;;4.90;99.90;;;;;;4985154;28;20043;-79
2024/01/30 03:45:52;;;;;;;840.65;774.28;;;4.90;99.90;;;;;;4985292;28;20065;-79
2024/01/30 03:48:18;;;;;;;821.95;757.28;;;4.90;99.90;;;;;;4984594;28;20404;-79
2024/01/30 03:50:44;;;;;;;848.05;780.60;;;4.90;99.90;;;;;;4995269;28;20064;-79
2024/01/30 03:53:10;;;;;;;857.88;790.13;;;4.90;99.90;;;;;;4990146;28;20041;-78
2024/01/30 03:55:35;;;;;;;833.28;767.38;;;4.90;99.90;;;;;;5005905;28;20049;-79
2024/01/30 03:58:01;;;;;;;864.72;795.20;;;5.00;99.90;;;;;;5002601;28;20521;-79
2024/01/30 04:00:27;;;;;;;845.90;779.03;;;5.00;99.90;;;;;;4996996;28;20432;-79
2024/01/30 04:02:52;;;;;;;854.38;786.15;;;4.90;99.90;;;;;;5013207;28;20093;-79
2024/01/30 04:05:18;;;;;;;887.47;814.53;;;5.40;99.90;;;;;;4986555;28;20086;-79
2024/01/30 04:07:44;;;;;;;839.70;773.63;;;5.30;99.90;;;;;;4984180;28;20501;-79
2024/01/30 04:10:10;;;;;;;857.60;788.38;;;5.10;99.90;;;;;;4986830;28;20046;-79
2024/01/30 04:12:36;;;;;;;838.03;771.38;;;5.10;99.90;;;;;;4998390;28;20045;-78
2024/01/30 04:15:03;;;;;;;891.10;815.88;;;5.20;99.90;;;;;;4985933;28;20436;-79
2024/01/30 04:17:29;;;;;;;887.15;813.67;;;5.20;99.90;;;;;;4984921;28;20062;-79
2024/01/30 04:19:55;;;;;;;903.45;827.47;;;5.30;99.90;;;;;;4985322;28;20383;-79
2024/01/30 04:22:20;;;;;;;909.33;834.25;;;5.40;99.90;;;;;;4984678;28;20058;-79
2024/01/30 04:24:46;;;;;;;831.10;765.05;;;5.40;99.90;;;;;;4985199;28;20055;-79
2024/01/30 04:27:12;;;;;;;862.30;791.78;;;5.90;99.90;;;;;;4984283;28;20061;-79
2024/01/30 04:29:38;;;;;;;834.80;769.05;;;5.50;99.90;;;;;;4984544;28;20042;-79
2024/01/30 04:32:04;;;;;;;845.60;777.97;;;5.50;99.90;;;;;;4985466;28;20061;-79
2024/01/30 04:34:30;;;;;;;799.05;736.92;;;5.50;99.90;;;;;;4985240;28;20057;-79
2024/01/30 04:36:56;;;;;;;835.00;767.67;;;5.60;99.90;;;;;;4986757;28;20050;-79
2024/01/30 04:39:22;;;;;;;812.95;749.38;;;5.60;99.90;;;;;;4985705;28;20493;-79
2024/01/30 04:41:48;;;;;;;849.45;782.05;;;5.50;99.90;;;;;;4984679;28;20050;-79
2024/01/30 04:44:14;;;;;;;837.00;769.95;;;5.50;99.90;;;;;;4985162;28;20075;-79
2024/01/30 04:46:40;;;;;;;935.75;853.08;;;5.50;99.90;;;;;;4985278;28;20053;-79
2024/01/30 04:49:07;;;;;;;831.25;765.90;;;5.60;99.90;;;;;;4985648;28;20101;-79
2024/01/30 04:51:33;;;;;;;808.13;745.15;;;5.70;99.90;;;;;;4984220;28;20050;-79
2024/01/30 04:53:59;;;;;;;801.38;738.20;;;5.70;99.90;;;;;;4986593;28;20034;-79
2024/01/30 04:56:25;;;;;;;817.88;754.58;;;5.70;99.90;;;;;;4984313;28;20061;-79
2024/01/30 04:58:50;;;;;;;856.72;788.67;;;5.80;99.90;;;;;;4984815;28;20046;-79
2024/01/30 05:01:17;;;;;;;830.53;763.50;;;5.70;99.90;;;;;;4993169;28;20050;-79
2024/01/30 05:03:43;;;;;;;807.30;744.55;;;5.80;99.90;;;;;;5025642;28;20103;-79
2024/01/30 05:06:09;;;;;;;817.63;753.97;;;5.90;99.90;;;;;;4988950;28;20058;-79
2024/01/30 05:08:40;;;;;;;832.28;767.10;;;5.90;99.90;;;;;;4984583;28;20107;-79
2024/01/30 05:11:06;;;;;;;848.42;781.05;;;5.90;99.90;;;;;;4984194;28;20160;-79
2024/01/30 05:13:32;;;;;;;813.17;749.38;;;6.00;99.90;;;;;;4985366;28;20050;-79
2024/01/30 05:15:57;;;;;;;797.85;735.63;;;6.00;99.90;;;;;;4985670;28;20054;-79
2024/01/30 05:18:23;;;;;;;869.85;800.00;;;6.10;99.90;;;;;;4984234;28;20038;-79
2024/01/30 05:20:50;;;;;;;829.08;764.10;;;6.10;99.90;;;;;;4986020;28;20081;-79
2024/01/30 05:23:16;;;;;;;813.42;750.55;;;6.10;99.90;;;;;;4984389;28;20039;-79
2024/01/30 05:25:42;;;;;;;842.92;775.88;;;6.10;99.90;;;;;;4985183;28;20050;-79
2024/01/30 05:28:08;;;;;;;838.10;771.97;;;6.10;99.90;;;;;;4973075;28;20049;-79
2024/01/30 05:30:33;;;;;;;837.60;769.92;;;6.10;99.90;;;;;;4981649;28;20043;-79
2024/01/30 05:32:59;;;;;;;836.92;771.58;;;6.10;99.90;;;;;;5001776;28;20402;-79
2024/01/30 05:35:25;;;;;;;816.55;752.95;;;6.10;99.90;;;;;;5015694;28;20046;-79
2024/01/30 05:37:51;;;;;;;812.60;750.58;;;6.10;99.90;;;;;;4982863;28;20054;-79
2024/01/30 05:40:17;;;;;;;768.05;709.70;;;6.20;99.90;;;;;;4982836;28;20038;-79
2024/01/30 05:42:43;;;;;;;796.28;735.03;;;6.20;99.90;;;;;;4984609;28;20091;-79
2024/01/30 05:45:09;;;;;;;811.45;748.17;;;6.20;99.90;;;;;;4984644;28;20497;-79
2024/01/30 05:47:35;;;;;;;809.50;746.90;;;6.10;99.90;;;;;;4977550;28;20057;-79
2024/01/30 05:50:01;;;;;;;815.47;752.03;;;6.10;99.90;;;;;;4991009;28;20498;-79
2024/01/30 05:52:26;;;;;;;819.60;756.63;;;6.20;99.90;;;;;;4980244;28;20233;-79
2024/01/30 05:54:52;;;;;;;813.63;750.63;;;6.20;99.90;;;;;;4991868;28;20037;-79
2024/01/30 05:57:18;;;;;;;790.65;729.92;;;6.10;99.90;;;;;;4968641;28;20085;-79
2024/01/30 05:59:44;;;;;;;816.20;751.53;;;6.20;99.90;;;;;;4982523;28;20179;-79
2024/01/30 06:02:11;;;;;;;793.20;731.35;;;6.20;99.90;;;;;;4990962;28;20046;-79
2024/01/30 06:04:37;;;;;;;825.28;760.92;;;6.10;99.90;;;;;;4995820;28;20046;-79
2024/01/30 06:07:03;;;;;;;819.60;755.45;;;6.20;99.90;;;;;;4990900;28;20038;-79
2024/01/30 06:09:29;;;;;;;801.58;739.53;;;6.20;99.90;;;;;;4995404;28;20489;-79
2024/01/30 06:11:55;;;;;;;817.80;754.30;;;6.20;99.90;;;;;;5002512;28;20056;-79
2024/01/30 06:14:20;;;;;;;774.47;715.30;;;6.30;99.90;;;;;;4986289;28;20044;-79
2024/01/30 06:16:46;;;;;;;812.95;749.22;;;6.30;99.90;;;;;;5004045;28;20539;-79
2024/01/30 06:19:12;;;;;;;775.08;715.83;;;6.20;99.90;;;;;;5018256;28;20381;-80
2024/01/30 06:21:38;;;;;;;771.70;713.00;;;6.30;99.90;;;;;;5019439;28;20078;-79
2024/01/30 06:24:04;;;;;;;752.72;695.10;;;6.30;99.90;;;;;;4990481;28;20057;-79
2024/01/30 06:26:30;;;;;;;825.58;759.65;;;6.30;99.90;;;;;;4993897;28;20102;-79
2024/01/30 06:28:55;;;;;;;802.80;740.42;;;6.30;99.90;;;;;;4992985;28;20734;-79
2024/01/30 06:31:21;;;;;;;781.00;721.92;;;6.30;99.90;;;;;;4993897;28;20145;-79
2024/01/30 06:33:48;;;;;;;801.22;739.70;;;6.40;99.90;;;;;;4999368;28;20068;-79
2024/01/30 06:36:14;;;;;;;828.40;763.97;;;6.40;99.90;;;;;;4985727;28;20065;-79
2024/01/30 06:38:41;;;;;;;817.95;754.60;;;6.40;99.90;;;;;;4983551;28;20121;-79
2024/01/30 06:41:07;;;;;;;814.40;751.20;;;6.40;99.90;;;;;;4976036;28;20376;-79
2024/01/30 06:43:33;;;;;;;784.38;725.08;;;6.40;99.90;;;;;;4982437;28;20049;-79
2024/01/30 06:45:59;;;;;;;768.58;709.90;;;6.40;99.90;;;;;;4974042;28;20100;-80
2024/01/30 06:48:25;;;;;;;796.78;735.25;;;6.40;99.90;;;;;;4980076;28;20049;-79
2024/01/30 06:50:53;;;;;;;788.17;727.67;;;6.40;99.90;;;;;;4991757;28;20046;-79
2024/01/30 06:53:19;;;;;;;805.08;742.83;;;6.50;99.90;;;;;;4975264;28;20038;-79
2024/01/30 06:55:45;;;;;;;802.20;740.00;;;6.50;99.90;;;;;;4991645;28;20041;-79
2024/01/30 06:58:11;;;;;;;809.95;747.30;;;6.50;99.90;;;;;;4994231;28;20398;-79
2024/01/30 07:00:37;;;;;;;836.50;769.53;;;6.60;99.90;;;;;;4996167;28;20179;-79
2024/01/30 07:03:03;;;;;;;827.83;763.38;;;6.60;99.90;;;;;;4987859;28;20038;-79
2024/01/30 07:05:29;;;;;;;786.58;726.10;;;6.60;99.90;;;;;;4985924;28;20161;-79
2024/01/30 07:07:55;;;;;;;798.17;737.13;;;6.70;99.90;;;;;;4989159;28;20046;-79
2024/01/30 07:10:20;;;;;;;789.83;728.72;;;6.70;99.90;;;;;;5004279;28;20038;-79
2024/01/30 07:12:46;;;;;;;810.85;747.60;;;6.70;99.90;;;;;;5003310;28;20045;-79
2024/01/30 07:15:14;;;;;;;855.47;787.67;;;6.70;99.90;;;;;;5004640;28;20081;-79
2024/01/30 07:17:40;;;;;;;823.58;758.78;;;6.80;99.90;;;;;;5003656;28;20142;-79
2024/01/30 07:20:07;;;;;;;794.08;733.47;;;6.80;99.90;;;;;;5005667;28;20077;-79
2024/01/30 07:22:33;;;;;;;781.50;721.33;;;6.90;99.90;;;;;;4970767;28;20046;-79
2024/01/30 07:24:59;;;;;;;815.67;752.30;;;6.80;99.90;;;;;;4996592;28;20042;-79
2024/01/30 07:27:24;;;;;;;832.03;766.92;;;6.90;99.90;;;;;;4987278;28;20065;-79
2024/01/30 07:29:50;;;;;;;783.53;723.08;;;6.90;99.90;;;;;;5006841;28;20103;-79
2024/01/30 07:32:16;;;;;;;810.75;747.13;;;6.90;99.90;;;;;;5003634;28;20054;-80
2024/01/30 07:34:42;;;;;;;813.65;749.95;;;6.90;99.90;;;;;;4987301;28;20058;-79
2024/01/30 07:37:08;;;;;;;817.30;753.13;;;6.90;99.90;;;;;;5026295;28;20043;-78
2024/01/30 07:39:34;;;;;;;813.65;749.60;;;7.00;99.90;;;;;;4985459;28;20089;-80
2024/01/30 07:42:00;;;;;;;808.17;745.03;;;7.00;99.90;;;;;;4985545;28;20386;-79
2024/01/30 07:44:26;;;;;;;785.88;725.45;;;7.00;99.90;;;;;;4995674;28;20038;-79
2024/01/30 07:46:51;;;;;;;812.55;748.80;;;6.90;99.90;;;;;;5000103;28;20057;-79
2024/01/30 07:49:17;;;;;;;793.53;732.70;;;7.00;99.90;;;;;;4977324;28;20046;-79
2024/01/30 07:51:44;;;;;;;817.22;752.35;;;7.00;99.90;;;;;;5028640;28;20050;-79
2024/01/30 07:54:17;;;;;;;811.95;748.30;;;7.00;99.90;;;;;;4994562;28;20046;-79
2024/01/30 07:56:43;;;;;;;806.67;744.38;;;7.00;99.90;;;;;;4999621;28;20053;-79
2024/01/30 07:59:11;;;;;;;788.20;728.05;;;7.00;99.90;;;;;;4989981;28;20145;-79
2024/01/30 08:01:37;;;;;;;804.05;741.60;;;7.20;99.90;;;;;;4997308;28;20050;-79
2024/01/30 08:04:03;;;;;;;826.97;761.58;;;7.10;99.90;;;;;;4985822;28;20057;-79
2024/01/30 08:06:28;;;;;;;792.67;731.97;;;7.20;99.90;;;;;;4984395;28;20149;-79
2024/01/30 08:08:54;;;;;;;808.35;745.58;;;7.20;99.90;;;;;;4984453;28;20086;-79
2024/01/30 08:11:25;;;;;;;835.08;767.63;;;7.20;99.90;;;;;;4985347;28;20080;-79
2024/01/30 08:13:52;;;;;;;834.20;767.15;;;7.20;99.90;;;;;;4996105;28;20042;-79
2024/01/30 08:16:17;;;;;;;821.60;757.47;;;7.30;99.90;;;;;;4999308;28;20050;-79
2024/01/30 08:18:43;;;;;;;843.42;775.85;;;7.30;99.90;;;;;;4985896;28;20047;-78
2024/01/30 08:21:09;;;;;;;828.83;763.95;;;7.40;99.90;;;;;;5010623;28;20405;-79
2024/01/30 08:23:35;;;;;;;803.00;740.40;;;7.30;99.90;;;;;;4980602;28;20057;-78
2024/01/30 08:26:01;;;;;;;810.30;747.45;;;7.40;99.90;;;;;;4986890;28;20055;-78
2024/01/30 08:28:26;;;;;;;807.92;744.38;;;7.30;99.90;;;;;;4984004;28;20448;-79
2024/01/30 08:30:52;;;;;;;823.47;758.55;;;7.40;99.90;;;;;;4987690;28;20088;-79
2024/01/30 08:33:18;;;;;;;865.30;794.33;;;7.50;99.90;;;;;;4984874;28;20402;-79
2024/01/30 08:35:44;;;;;;;805.65;742.63;;;7.50;99.90;;;;;;4985843;28;20077;-79
2024/01/30 08:38:12;;;;;;;799.90;737.45;;;7.50;99.90;;;;;;4973411;28;20060;-78
2024/01/30 08:40:38;;;;;;;815.45;751.90;;;7.60;99.90;;;;;;4969541;28;20116;-79
2024/01/30 08:43:04;;;;;;;799.00;737.25;;;7.60;99.90;;;;;;4983818;28;20039;-79
2024/01/30 08:45:30;;;;;;;765.85;707.35;;;7.60;99.90;;;;;;4974780;28;20111;-78
2024/01/30 08:47:56;;;;;;;795.75;733.85;;;7.70;99.90;;;;;;4981715;28;20094;-81
2024/01/30 08:50:22;;;;;;;812.60;748.67;;;7.80;99.90;;;;;;4993342;28;20045;-80
2024/01/30 08:52:48;;;;;;;868.47;797.10;;;7.80;99.90;;;;;;4971952;28;20168;-79
2024/01/30 08:55:14;;;;;;;837.72;770.53;;;7.90;99.90;;;;;;4993783;28;20115;-79
2024/01/30 08:57:40;;;;;;;821.72;757.17;;;7.90;99.90;;;;;;4985604;28;20803;-79
2024/01/30 09:00:08;;;;;;;821.85;757.22;;;8.00;99.90;;;;;;4990283;28;20082;-79
2024/01/30 09:02:34;;;;;;;825.47;761.35;;;8.00;99.90;;;;;;4990919;28;20545;-79
2024/01/30 09:05:00;;;;;;;769.47;710.78;;;8.00;99.90;;;;;;4986686;28;20129;-79
2024/01/30 09:07:26;;;;;;;824.75;759.05;;;8.00;99.90;;;;;;4983968;28;20093;-79
2024/01/30 09:09:51;;;;;;;787.65;726.30;;;8.10;99.90;;;;;;4985576;28;20053;-80
2024/01/30 09:12:17;;;;;;;773.17;713.78;;;8.10;99.90;;;;;;4983472;28;20129;-79
2024/01/30 09:14:43;;;;;;;800.50;737.38;;;8.20;99.90;;;;;;4983900;28;20080;-79
2024/01/30 09:17:08;;;;;;;801.75;739.88;;;8.10;99.90;;;;;;4985790;28;20042;-79
2024/01/30 09:19:34;;;;;;;820.00;753.85;;;8.20;99.90;;;;;;4985165;28;20546;-79
2024/01/30 09:22:00;;;;;;;825.22;760.30;;;8.20;99.90;;;;;;4984672;28;20054;-79
2024/01/30 09:24:27;;;;;;;920.00;838.13;;;8.30;99.90;;;;;;4984681;28;20053;-79
2024/01/30 09:26:53;;;;;;;791.83;731.00;;;8.30;99.90;;;;;;4983530;28;20085;-79
2024/01/30 09:29:18;;;;;;;759.20;701.80;;;8.40;99.90;;;;;;4986006;28;20082;-79
2024/01/30 09:31:45;;;;;;;772.33;711.90;;;8.40;99.90;;;;;;4983046;28;20046;-79
2024/01/30 09:34:13;;;;;;;807.53;743.80;;;8.40;99.90;;;;;;4976545;28;20077;-79
2024/01/30 09:36:39;;;;;;;812.88;747.65;;;8.50;99.90;;;;;;4967088;28;20145;-79
2024/01/30 09:39:06;;;;;;;825.90;758.45;;;8.60;99.90;;;;;;4984123;28;20078;-79
2024/01/30 09:41:34;;;;;;;759.90;702.35;;;8.60;99.90;;;;;;4967917;28;20497;-79
2024/01/30 09:44:02;;;;;;;832.17;766.28;;;8.80;99.90;;;;;;4974412;28;20034;-80
2024/01/30 09:46:31;;;;;;;778.67;718.90;;;8.80;99.90;;;;;;4984261;28;20133;-79
2024/01/30 09:48:58;;;;;;;778.47;718.85;;;8.90;99.90;;;;;;4986023;28;20112;-79
2024/01/30 09:51:25;;;;;;;704.88;652.42;;;9.00;99.90;;;;;;4984541;28;20054;-79
2024/01/30 09:53:53;;;;;;;731.15;676.22;;;9.00;99.90;;;;;;4966880;28;20058;-79
2024/01/30 09:56:19;;;;;;;749.42;692.45;;;9.10;99.90;;;;;;4984151;28;20584;-79
2024/01/30 09:58:46;;;;;;;733.75;678.30;;;9.10;99.90;;;;;;4983924;28;20117;-79
2024/01/30 10:01:12;;;;;;;730.33;675.55;;;9.20;99.90;;;;;;4984517;28;20054;-79
2024/01/30 10:03:37;;;;;;;735.45;680.50;;;9.20;99.90;;;;;;4983086;28;20551;-79
2024/01/30 10:06:03;;;;;;;740.70;684.97;;;9.20;99.90;;;;;;4984487;28;20046;-79
2024/01/30 10:08:29;;;;;;;688.88;637.72;;;9.20;99.90;;;;;;4983468;28;20398;-80
2024/01/30 10:10:55;;;;;;;700.47;648.45;;;9.20;99.90;;;;;;4982685;28;20058;-79
2024/01/30 10:13:21;;;;;;;730.05;675.03;;;9.20;99.90;;;;;;4982354;28;20035;-79
2024/01/30 10:15:48;;;;;;;747.45;690.67;;;9.30;99.90;;;;;;4984819;28;20581;-80
2024/01/30 10:18:13;;;;;;;738.30;682.13;;;9.20;99.90;;;;;;5001962;28;20405;-80
2024/01/30 10:20:39;;;;;;;715.22;661.60;;;9.30;99.90;;;;;;5001410;28;20045;-79
2024/01/30 10:23:05;;;;;;;741.65;686.67;;;9.30;99.90;;;;;;5002097;28;20041;-80
2024/01/30 10:25:31;;;;;;;739.67;682.63;;;9.40;99.90;;;;;;5003038;28;20034;-80
2024/01/30 10:27:58;;;;;;;764.22;704.63;;;9.40;99.90;;;;;;5001108;28;20092;-79
2024/01/30 10:30:25;;;;;;;802.78;739.38;;;9.40;99.90;;;;;;5001781;28;20054;-80
2024/01/30 10:32:51;;;;;;;739.30;682.78;;;9.40;99.90;;;;;;4993585;28;20057;-80
2024/01/30 10:35:17;;;;;;;774.03;715.08;;;9.50;99.90;;;;;;5026539;28;20062;-79
2024/01/30 10:37:46;;;;;;;774.85;715.53;;;9.60;99.90;;;;;;5001976;28;20056;-79
2024/01/30 10:40:14;;;;;;;770.08;709.78;;;9.60;99.90;;;;;;4984712;28;20496;-79
2024/01/30 10:42:44;;;;;;;727.45;671.63;;;9.60;99.90;;;;;;5002769;28;20073;-79
2024/01/30 10:45:12;;;;;;;793.05;730.25;;;9.60;99.90;;;;;;4997781;28;20129;-80
2024/01/30 10:47:41;;;;;;;809.47;743.88;;;9.60;99.90;;;;;;4994953;28;20045;-80
2024/01/30 10:50:09;;;;;;;693.85;641.90;;;9.70;99.90;;;;;;5005352;28;20038;-80
2024/01/30 10:52:34;;;;;;;728.45;673.17;;;9.70;99.90;;;;;;5005499;28;20161;-79
2024/01/30 10:55:01;;;;;;;700.30;647.40;;;9.70;99.90;;;;;;5006634;28;20403;-79
2024/01/30 10:57:27;;;;;;;772.38;711.33;;;9.70;99.90;;;;;;4994441;28;20043;-79
2024/01/30 10:59:56;;;;;;;732.08;675.85;;;9.70;99.90;;;;;;4991551;28;20401;-78
2024/01/30 11:02:23;;;;;;;828.00;757.63;;;9.70;99.90;;;;;;5006117;28;20129;-79
2024/01/30 11:04:50;;;;;;;665.55;616.10;;;9.80;99.90;;;;;;5004915;28;20053;-78
2024/01/30 11:07:17;;;;;;;743.70;686.92;;;9.80;99.90;;;;;;5004352;28;20057;-79
2024/01/30 11:09:51;;;;;;;688.60;637.28;;;9.80;99.90;;;;;;5003365;28;20442;-79
2024/01/30 11:12:21;;;;;;;707.67;655.00;;;9.80;99.90;;;;;;5005309;28;20132;-78
2024/01/30 11:14:46;;;;;;;716.30;662.25;;;9.70;99.90;;;;;;4991980;28;20542;-78
2024/01/30 11:17:12;;;;;;;707.85;655.13;;;9.80;99.90;;;;;;5003838;28;20049;-78
2024/01/30 11:19:38;;;;;;;724.95;670.63;;;9.70;99.90;;;;;;5006289;28;20065;-79
2024/01/30 11:22:07;;;;;;;767.78;708.17;;;9.80;99.90;;;;;;5004469;28;20038;-78
2024/01/30 11:24:40;;;;;;;747.42;690.72;;;9.70;99.90;;;;;;5003752;28;20110;-78
2024/01/30 11:27:10;;;;;;;735.35;679.70;;;9.70;99.90;;;;;;5002448;28;20409;-78
2024/01/30 11:29:36;;;;;;;772.95;711.80;;;9.80;99.90;;;;;;5005631;28;20401;-78
2024/01/30 11:32:02;;;;;;;778.10;716.22;;;9.70;99.90;;;;;;5004135;28;20062;-79
2024/01/30 11:34:28;;;;;;;930.38;843.60;;;9.70;99.90;;;;;;4989188;28;21005;-78
2024/01/30 11:36:59;;;;;;;944.47;849.78;;;9.80;99.90;;;;;;5005348;28;20122;-79
2024/01/30 11:39:26;;;;;;;803.72;738.47;;;9.80;99.90;;;;;;5000512;28;20563;-78
2024/01/30 11:41:53;;;;;;;762.00;701.90;;;9.80;99.90;;;;;;4997275;28;20661;-80
2024/01/30 11:44:23;;;;;;;897.97;819.28;;;9.80;99.90;;;;;;5000848;28;20049;-78
2024/01/30 11:46:49;;;;;;;783.10;717.67;;;9.80;99.90;;;;;;4996404;28;20046;-78
2024/01/30 11:49:16;;;;;;;863.75;788.42;;;9.70;99.90;;;;;;4999240;28;20050;-77
2024/01/30 11:51:42;;;;;;;802.42;735.45;;;9.80;99.90;;;;;;4998122;28;20167;-78
2024/01/30 11:54:08;;;;;;;845.80;774.10;;;9.80;99.90;;;;;;5000158;28;20136;-78
2024/01/30 11:56:34;;;;;;;953.33;862.63;;;9.80;99.90;;;;;;4993512;28;20050;-78
2024/01/30 11:59:00;;;;;;;906.53;822.35;;;9.80;99.90;;;;;;4977125;28;20053;-78
2024/01/30 12:01:27;;;;;;;904.47;818.65;;;9.80;99.90;;;;;;4988534;28;20083;-78
2024/01/30 12:03:53;;;;;;;804.53;738.90;;;9.70;99.90;;;;;;5003863;28;20064;-78
2024/01/30 12:06:18;;;;;;;768.90;708.17;;;9.70;99.90;;;;;;5002623;28;20604;-78
2024/01/30 12:08:58;;;;;;;865.17;786.60;;;9.80;99.90;;;;;;5004243;28;20049;-78
2024/01/30 12:11:24;;;;;;;814.88;748.00;;;9.70;99.90;;;;;;5033918;28;20125;-78
2024/01/30 12:13:52;;;;;;;1035.28;921.47;;;9.70;99.90;;;;;;5000499;28;20141;-79